sensor_id;sensor_type;location;lat;lon;timestamp;P1;durP1;ratioP1;P2;durP2;ratioP2
41633;SDS011;37274;51.150;4.808;2022-08-11T00:01:49;0.90;;;0.50;;
41633;SDS011;37274;51.150;4.808;2022-08-11T00:04:17;0.68;;;0.45;;
41633;SDS011;37274;51.150;4.808;2022-08-11T00:06:45;1.67;;;0.70;;
41633;SDS011;37274;51.150;4.808;2022-08-11T00:09:19;1.77;;;0.40;;
41633;SDS011;37274;51.150;4.808;2022-08-11T00:11:48;3.05;;;1.10;;
41633;SDS011;37274;51.150;4.808;2022-08-11T00:14:18;1.00;;;0.68;;
41633;SDS011;37274;51.150;4.808;2022-08-11T00:16:57;0.77;;;0.50;;
41633;SDS011;37274;51.150;4.808;2022-08-11T00:19:27;1.52;;;0.60;;
41633;SDS011;37274;51.150;4.808;2022-08-11T00:22:19;0.40;;;0.40;;
41633;SDS011;37274;51.150;4.808;2022-08-11T00:24:47;1.25;;;0.32;;
41633;SDS011;37274;51.150;4.808;2022-08-11T00:27:35;1.73;;;0.50;;
41633;SDS011;37274;51.150;4.808;2022-08-11T00:30:03;1.20;;;0.82;;
41633;SDS011;37274;51.150;4.808;2022-08-11T00:32:31;0.40;;;0.40;;
41633;SDS011;37274;51.150;4.808;2022-08-11T00:34:59;0.47;;;0.47;;
41633;SDS011;37274;51.150;4.808;2022-08-11T00:37:47;0.75;;;0.50;;
41633;SDS011;37274;51.150;4.808;2022-08-11T00:40:24;0.47;;;0.40;;
41633;SDS011;37274;51.150;4.808;2022-08-11T00:43:03;0.50;;;0.50;;
41633;SDS011;37274;51.150;4.808;2022-08-11T01:00:18;1.05;;;0.50;;
41633;SDS011;37274;51.150;4.808;2022-08-11T01:43:03;1.23;;;0.57;;
41633;SDS011;37274;51.150;4.808;2022-08-11T01:46:38;0.90;;;0.73;;
41633;SDS011;37274;51.150;4.808;2022-08-11T01:49:34;2.03;;;0.70;;
41633;SDS011;37274;51.150;4.808;2022-08-11T01:52:27;0.47;;;0.35;;
41633;SDS011;37274;51.150;4.808;2022-08-11T01:57:53;1.15;;;0.50;;
41633;SDS011;37274;51.150;4.808;2022-08-11T02:00:26;0.60;;;0.40;;
41633;SDS011;37274;51.150;4.808;2022-08-11T02:14:02;1.52;;;0.68;;
41633;SDS011;37274;51.150;4.808;2022-08-11T02:22:48;0.70;;;0.70;;
41633;SDS011;37274;51.150;4.808;2022-08-11T02:26:02;0.63;;;0.50;;
41633;SDS011;37274;51.150;4.808;2022-08-11T02:34:44;1.88;;;0.50;;
41633;SDS011;37274;51.150;4.808;2022-08-11T02:40:01;0.98;;;0.55;;
41633;SDS011;37274;51.150;4.808;2022-08-11T03:10:45;0.85;;;0.68;;
41633;SDS011;37274;51.150;4.808;2022-08-11T03:13:45;0.50;;;0.50;;
41633;SDS011;37274;51.150;4.808;2022-08-11T03:19:47;1.15;;;0.73;;
41633;SDS011;37274;51.150;4.808;2022-08-11T03:25:05;1.08;;;0.73;;
41633;SDS011;37274;51.150;4.808;2022-08-11T03:27:41;0.70;;;0.68;;
41633;SDS011;37274;51.150;4.808;2022-08-11T03:30:22;0.70;;;0.70;;
41633;SDS011;37274;51.150;4.808;2022-08-11T03:32:56;0.70;;;0.70;;
41633;SDS011;37274;51.150;4.808;2022-08-11T03:36:08;0.70;;;0.70;;
41633;SDS011;37274;51.150;4.808;2022-08-11T03:41:33;0.75;;;0.60;;
41633;SDS011;37274;51.150;4.808;2022-08-11T03:52:59;0.60;;;0.50;;
41633;SDS011;37274;51.150;4.808;2022-08-11T03:55:46;0.85;;;0.85;;
41633;SDS011;37274;51.150;4.808;2022-08-11T04:10:27;0.70;;;0.60;;
41633;SDS011;37274;51.150;4.808;2022-08-11T04:27:15;1.13;;;1.00;;
41633;SDS011;37274;51.150;4.808;2022-08-11T04:30:14;1.55;;;0.82;;
41633;SDS011;37274;51.150;4.808;2022-08-11T04:50:36;1.10;;;0.80;;
41633;SDS011;37274;51.150;4.808;2022-08-11T04:53:59;2.10;;;0.73;;
41633;SDS011;37274;51.150;4.808;2022-08-11T04:56:54;0.80;;;0.80;;
41633;SDS011;37274;51.150;4.808;2022-08-11T05:00:29;1.75;;;0.80;;
41633;SDS011;37274;51.150;4.808;2022-08-11T05:17:03;2.33;;;1.98;;
41633;SDS011;37274;51.150;4.808;2022-08-11T05:19:53;3.33;;;1.93;;
41633;SDS011;37274;51.150;4.808;2022-08-11T05:22:39;6.05;;;2.50;;
41633;SDS011;37274;51.150;4.808;2022-08-11T05:25:34;2.60;;;2.28;;
41633;SDS011;37274;51.150;4.808;2022-08-11T05:28:53;7.13;;;2.45;;
41633;SDS011;37274;51.150;4.808;2022-08-11T05:31:48;6.32;;;3.05;;
41633;SDS011;37274;51.150;4.808;2022-08-11T05:34:43;3.75;;;2.65;;
41633;SDS011;37274;51.150;4.808;2022-08-11T05:40:06;5.33;;;2.73;;
41633;SDS011;37274;51.150;4.808;2022-08-11T05:42:57;4.72;;;2.63;;
41633;SDS011;37274;51.150;4.808;2022-08-11T05:45:43;4.32;;;2.92;;
41633;SDS011;37274;51.150;4.808;2022-08-11T05:48:33;3.72;;;2.30;;
41633;SDS011;37274;51.150;4.808;2022-08-11T05:54:20;4.20;;;2.50;;
41633;SDS011;37274;51.150;4.808;2022-08-11T05:57:18;5.72;;;2.47;;
41633;SDS011;37274;51.150;4.808;2022-08-11T06:00:07;4.82;;;2.60;;
41633;SDS011;37274;51.150;4.808;2022-08-11T06:02:42;3.00;;;2.53;;
41633;SDS011;37274;51.150;4.808;2022-08-11T06:05:14;4.18;;;2.33;;
41633;SDS011;37274;51.150;4.808;2022-08-11T06:07:44;6.95;;;2.70;;
41633;SDS011;37274;51.150;4.808;2022-08-11T06:10:25;5.07;;;1.92;;
41633;SDS011;37274;51.150;4.808;2022-08-11T06:12:55;9.30;;;2.05;;
41633;SDS011;37274;51.150;4.808;2022-08-11T06:15:23;3.75;;;2.30;;
41633;SDS011;37274;51.150;4.808;2022-08-11T06:17:51;4.75;;;1.90;;
41633;SDS011;37274;51.150;4.808;2022-08-11T06:20:19;4.28;;;2.47;;
41633;SDS011;37274;51.150;4.808;2022-08-11T06:22:47;3.80;;;2.10;;
41633;SDS011;37274;51.150;4.808;2022-08-11T06:25:21;11.20;;;2.72;;
41633;SDS011;37274;51.150;4.808;2022-08-11T06:27:53;4.93;;;1.95;;
41633;SDS011;37274;51.150;4.808;2022-08-11T06:33:00;3.00;;;1.85;;
41633;SDS011;37274;51.150;4.808;2022-08-11T06:39:05;6.10;;;1.45;;
41633;SDS011;37274;51.150;4.808;2022-08-11T06:41:25;2.70;;;1.38;;
41633;SDS011;37274;51.150;4.808;2022-08-11T06:46:39;1.73;;;1.30;;
41633;SDS011;37274;51.150;4.808;2022-08-11T06:49:12;3.53;;;1.60;;
41633;SDS011;37274;51.150;4.808;2022-08-11T06:51:59;5.47;;;1.52;;
41633;SDS011;37274;51.150;4.808;2022-08-11T06:54:31;5.28;;;1.50;;
41633;SDS011;37274;51.150;4.808;2022-08-11T06:56:59;2.13;;;1.60;;
41633;SDS011;37274;51.150;4.808;2022-08-11T07:00:01;2.58;;;1.33;;
41633;SDS011;37274;51.150;4.808;2022-08-11T07:03:00;1.52;;;1.42;;
41633;SDS011;37274;51.150;4.808;2022-08-11T07:13:53;2.22;;;1.60;;
41633;SDS011;37274;51.150;4.808;2022-08-11T07:16:40;2.03;;;1.40;;
41633;SDS011;37274;51.150;4.808;2022-08-11T07:19:07;2.33;;;1.35;;
41633;SDS011;37274;51.150;4.808;2022-08-11T07:21:54;2.03;;;1.58;;
41633;SDS011;37274;51.150;4.808;2022-08-11T07:24:40;3.55;;;1.13;;
41633;SDS011;37274;51.150;4.808;2022-08-11T07:27:30;2.95;;;1.20;;
41633;SDS011;37274;51.150;4.808;2022-08-11T07:30:20;3.15;;;1.60;;
41633;SDS011;37274;51.150;4.808;2022-08-11T07:32:51;4.38;;;1.52;;
41633;SDS011;37274;51.150;4.808;2022-08-11T07:35:23;2.58;;;1.50;;
41633;SDS011;37274;51.150;4.808;2022-08-11T07:38:00;1.75;;;1.25;;
41633;SDS011;37274;51.150;4.808;2022-08-11T07:40:33;2.75;;;1.23;;
41633;SDS011;37274;51.150;4.808;2022-08-11T07:43:00;2.55;;;1.50;;
41633;SDS011;37274;51.150;4.808;2022-08-11T07:45:29;2.55;;;1.63;;
41633;SDS011;37274;51.150;4.808;2022-08-11T07:48:15;2.58;;;1.95;;
41633;SDS011;37274;51.150;4.808;2022-08-11T07:51:01;2.72;;;1.52;;
41633;SDS011;37274;51.150;4.808;2022-08-11T07:53:46;3.03;;;1.80;;
41633;SDS011;37274;51.150;4.808;2022-08-11T07:56:36;3.28;;;1.60;;
41633;SDS011;37274;51.150;4.808;2022-08-11T07:59:20;2.53;;;1.75;;
41633;SDS011;37274;51.150;4.808;2022-08-11T08:02:27;2.65;;;1.42;;
41633;SDS011;37274;51.150;4.808;2022-08-11T08:05:13;2.72;;;1.60;;
41633;SDS011;37274;51.150;4.808;2022-08-11T08:07:58;2.50;;;1.67;;
41633;SDS011;37274;51.150;4.808;2022-08-11T08:10:44;5.07;;;1.58;;
41633;SDS011;37274;51.150;4.808;2022-08-11T08:13:30;1.55;;;1.45;;
41633;SDS011;37274;51.150;4.808;2022-08-11T08:16:16;2.78;;;1.05;;
41633;SDS011;37274;51.150;4.808;2022-08-11T08:19:01;2.50;;;1.42;;
41633;SDS011;37274;51.150;4.808;2022-08-11T08:21:28;1.30;;;1.20;;
41633;SDS011;37274;51.150;4.808;2022-08-11T08:23:55;1.65;;;1.45;;
41633;SDS011;37274;51.150;4.808;2022-08-11T08:26:23;2.63;;;1.60;;
41633;SDS011;37274;51.150;4.808;2022-08-11T08:29:17;1.80;;;1.52;;
41633;SDS011;37274;51.150;4.808;2022-08-11T08:32:03;1.92;;;1.50;;
41633;SDS011;37274;51.150;4.808;2022-08-11T08:34:30;2.17;;;1.45;;
41633;SDS011;37274;51.150;4.808;2022-08-11T08:36:59;4.90;;;2.10;;
41633;SDS011;37274;51.150;4.808;2022-08-11T08:39:26;4.03;;;1.85;;
41633;SDS011;37274;51.150;4.808;2022-08-11T08:41:54;3.15;;;1.90;;
41633;SDS011;37274;51.150;4.808;2022-08-11T08:44:22;2.95;;;1.60;;
41633;SDS011;37274;51.150;4.808;2022-08-11T08:47:04;4.60;;;1.88;;
41633;SDS011;37274;51.150;4.808;2022-08-11T08:49:32;3.97;;;1.85;;
41633;SDS011;37274;51.150;4.808;2022-08-11T08:52:06;3.85;;;1.80;;
41633;SDS011;37274;51.150;4.808;2022-08-11T08:54:54;5.20;;;2.00;;
41633;SDS011;37274;51.150;4.808;2022-08-11T08:57:22;1.90;;;1.38;;
41633;SDS011;37274;51.150;4.808;2022-08-11T08:59:53;3.10;;;1.75;;
41633;SDS011;37274;51.150;4.808;2022-08-11T09:02:23;3.13;;;1.70;;
41633;SDS011;37274;51.150;4.808;2022-08-11T09:05:00;6.60;;;1.80;;
41633;SDS011;37274;51.150;4.808;2022-08-11T09:07:29;4.97;;;1.80;;
41633;SDS011;37274;51.150;4.808;2022-08-11T09:15:04;2.78;;;1.33;;
41633;SDS011;37274;51.150;4.808;2022-08-11T09:17:34;1.92;;;0.70;;
41633;SDS011;37274;51.150;4.808;2022-08-11T09:20:05;1.10;;;0.70;;
41633;SDS011;37274;51.150;4.808;2022-08-11T09:22:41;2.87;;;0.60;;
41633;SDS011;37274;51.150;4.808;2022-08-11T09:25:52;0.87;;;0.87;;
41633;SDS011;37274;51.150;4.808;2022-08-11T09:28:43;1.55;;;0.90;;
41633;SDS011;37274;51.150;4.808;2022-08-11T09:31:11;2.72;;;1.00;;
41633;SDS011;37274;51.150;4.808;2022-08-11T09:33:39;1.30;;;0.90;;
41633;SDS011;37274;51.150;4.808;2022-08-11T09:36:08;2.53;;;1.00;;
41633;SDS011;37274;51.150;4.808;2022-08-11T09:38:56;2.15;;;0.93;;
41633;SDS011;37274;51.150;4.808;2022-08-11T09:41:42;1.15;;;0.82;;
41633;SDS011;37274;51.150;4.808;2022-08-11T09:44:28;3.75;;;1.10;;
41633;SDS011;37274;51.150;4.808;2022-08-11T09:49:45;3.58;;;1.25;;
41633;SDS011;37274;51.150;4.808;2022-08-11T09:52:14;2.80;;;1.00;;
41633;SDS011;37274;51.150;4.808;2022-08-11T09:54:41;2.58;;;1.35;;
41633;SDS011;37274;51.150;4.808;2022-08-11T09:57:13;1.58;;;1.00;;
41633;SDS011;37274;51.150;4.808;2022-08-11T09:59:58;2.17;;;1.20;;
41633;SDS011;37274;51.150;4.808;2022-08-11T10:02:43;6.20;;;1.42;;
41633;SDS011;37274;51.150;4.808;2022-08-11T10:05:13;6.40;;;1.63;;
41633;SDS011;37274;51.150;4.808;2022-08-11T10:08:00;2.60;;;1.30;;
41633;SDS011;37274;51.150;4.808;2022-08-11T10:10:27;2.75;;;1.30;;
41633;SDS011;37274;51.150;4.808;2022-08-11T10:12:57;1.50;;;1.10;;
41633;SDS011;37274;51.150;4.808;2022-08-11T10:15:25;3.90;;;1.05;;
41633;SDS011;37274;51.150;4.808;2022-08-11T10:18:40;2.55;;;1.20;;
41633;SDS011;37274;51.150;4.808;2022-08-11T10:21:11;1.50;;;1.30;;
41633;SDS011;37274;51.150;4.808;2022-08-11T10:23:40;1.63;;;1.13;;
41633;SDS011;37274;51.150;4.808;2022-08-11T10:26:31;1.92;;;1.10;;
41633;SDS011;37274;51.150;4.808;2022-08-11T10:29:19;3.15;;;1.30;;
41633;SDS011;37274;51.150;4.808;2022-08-11T10:32:13;1.25;;;1.15;;
41633;SDS011;37274;51.150;4.808;2022-08-11T10:35:24;4.18;;;1.40;;
41633;SDS011;37274;51.150;4.808;2022-08-11T10:37:54;1.33;;;1.10;;
41633;SDS011;37274;51.150;4.808;2022-08-11T10:40:35;1.08;;;0.95;;
41633;SDS011;37274;51.150;4.808;2022-08-11T10:43:03;1.95;;;1.40;;
41633;SDS011;37274;51.150;4.808;2022-08-11T10:45:36;1.73;;;1.52;;
41633;SDS011;37274;51.150;4.808;2022-08-11T10:48:23;1.13;;;1.02;;
41633;SDS011;37274;51.150;4.808;2022-08-11T10:50:51;2.38;;;1.67;;
41633;SDS011;37274;51.150;4.808;2022-08-11T10:53:38;4.10;;;1.27;;
41633;SDS011;37274;51.150;4.808;2022-08-11T10:56:29;1.80;;;1.20;;
41633;SDS011;37274;51.150;4.808;2022-08-11T10:59:18;2.35;;;1.27;;
41633;SDS011;37274;51.150;4.808;2022-08-11T11:01:45;3.75;;;1.20;;
41633;SDS011;37274;51.150;4.808;2022-08-11T11:04:13;0.98;;;0.82;;
41633;SDS011;37274;51.150;4.808;2022-08-11T11:12:22;5.32;;;2.08;;
41633;SDS011;37274;51.150;4.808;2022-08-11T11:15:09;3.90;;;1.50;;
41633;SDS011;37274;51.150;4.808;2022-08-11T11:18:00;2.60;;;1.57;;
41633;SDS011;37274;51.150;4.808;2022-08-11T11:20:45;2.10;;;1.40;;
41633;SDS011;37274;51.150;4.808;2022-08-11T11:29:08;1.73;;;1.33;;
41633;SDS011;37274;51.150;4.808;2022-08-11T11:34:36;2.38;;;1.30;;
41633;SDS011;37274;51.150;4.808;2022-08-11T11:37:19;2.95;;;1.65;;
41633;SDS011;37274;51.150;4.808;2022-08-11T11:39:48;1.65;;;1.50;;
41633;SDS011;37274;51.150;4.808;2022-08-11T11:42:15;3.20;;;1.17;;
41633;SDS011;37274;51.150;4.808;2022-08-11T11:44:43;6.45;;;1.42;;
41633;SDS011;37274;51.150;4.808;2022-08-11T11:47:10;2.47;;;1.40;;
41633;SDS011;37274;51.150;4.808;2022-08-11T11:49:37;3.10;;;1.50;;
41633;SDS011;37274;51.150;4.808;2022-08-11T11:52:15;2.92;;;1.42;;
41633;SDS011;37274;51.150;4.808;2022-08-11T11:54:44;1.38;;;1.13;;
41633;SDS011;37274;51.150;4.808;2022-08-11T11:57:16;2.08;;;0.90;;
41633;SDS011;37274;51.150;4.808;2022-08-11T12:00:04;3.53;;;1.30;;
41633;SDS011;37274;51.150;4.808;2022-08-11T12:02:59;1.60;;;1.27;;
41633;SDS011;37274;51.150;4.808;2022-08-11T12:05:28;2.38;;;1.58;;
41633;SDS011;37274;51.150;4.808;2022-08-11T12:07:57;2.67;;;1.40;;
41633;SDS011;37274;51.150;4.808;2022-08-11T12:13:16;2.13;;;1.63;;
41633;SDS011;37274;51.150;4.808;2022-08-11T12:16:01;3.05;;;1.48;;
41633;SDS011;37274;51.150;4.808;2022-08-11T12:18:53;1.88;;;1.40;;
41633;SDS011;37274;51.150;4.808;2022-08-11T12:21:22;7.28;;;1.77;;
41633;SDS011;37274;51.150;4.808;2022-08-11T12:23:49;1.60;;;0.85;;
41633;SDS011;37274;51.150;4.808;2022-08-11T12:26:35;1.92;;;1.13;;
41633;SDS011;37274;51.150;4.808;2022-08-11T12:29:40;1.73;;;1.00;;
41633;SDS011;37274;51.150;4.808;2022-08-11T12:32:09;4.85;;;1.80;;
41633;SDS011;37274;51.150;4.808;2022-08-11T12:34:36;3.38;;;1.38;;
41633;SDS011;37274;51.150;4.808;2022-08-11T12:37:03;3.33;;;1.63;;
41633;SDS011;37274;51.150;4.808;2022-08-11T12:39:46;1.67;;;1.37;;
41633;SDS011;37274;51.150;4.808;2022-08-11T12:42:52;1.30;;;1.13;;
41633;SDS011;37274;51.150;4.808;2022-08-11T12:48:20;2.03;;;1.30;;
41633;SDS011;37274;51.150;4.808;2022-08-11T12:51:26;1.75;;;1.08;;
41633;SDS011;37274;51.150;4.808;2022-08-11T12:54:47;1.60;;;0.82;;
41633;SDS011;37274;51.150;4.808;2022-08-11T12:57:26;1.70;;;1.35;;
41633;SDS011;37274;51.150;4.808;2022-08-11T13:00:15;3.05;;;1.50;;
41633;SDS011;37274;51.150;4.808;2022-08-11T13:03:02;1.20;;;1.00;;
41633;SDS011;37274;51.150;4.808;2022-08-11T13:05:51;1.50;;;1.40;;
41633;SDS011;37274;51.150;4.808;2022-08-11T13:08:21;2.00;;;1.00;;
41633;SDS011;37274;51.150;4.808;2022-08-11T13:10:51;1.95;;;1.15;;
41633;SDS011;37274;51.150;4.808;2022-08-11T13:13:38;2.13;;;1.15;;
41633;SDS011;37274;51.150;4.808;2022-08-11T13:16:29;1.15;;;1.00;;
41633;SDS011;37274;51.150;4.808;2022-08-11T13:18:57;1.40;;;1.10;;
41633;SDS011;37274;51.150;4.808;2022-08-11T13:21:26;1.40;;;1.25;;
41633;SDS011;37274;51.150;4.808;2022-08-11T13:23:54;2.85;;;1.50;;
41633;SDS011;37274;51.150;4.808;2022-08-11T13:26:31;2.63;;;1.67;;
41633;SDS011;37274;51.150;4.808;2022-08-11T13:29:14;1.33;;;1.00;;
41633;SDS011;37274;51.150;4.808;2022-08-11T13:31:42;1.65;;;1.45;;
41633;SDS011;37274;51.150;4.808;2022-08-11T13:34:10;9.45;;;2.05;;
41633;SDS011;37274;51.150;4.808;2022-08-11T13:36:37;3.22;;;1.40;;
41633;SDS011;37274;51.150;4.808;2022-08-11T13:39:04;2.70;;;1.38;;
41633;SDS011;37274;51.150;4.808;2022-08-11T13:41:31;2.08;;;1.55;;
41633;SDS011;37274;51.150;4.808;2022-08-11T13:44:10;3.38;;;1.30;;
41633;SDS011;37274;51.150;4.808;2022-08-11T13:46:43;2.47;;;1.25;;
41633;SDS011;37274;51.150;4.808;2022-08-11T13:49:10;1.63;;;1.10;;
41633;SDS011;37274;51.150;4.808;2022-08-11T13:51:41;2.28;;;1.38;;
41633;SDS011;37274;51.150;4.808;2022-08-11T13:54:10;1.42;;;1.33;;
41633;SDS011;37274;51.150;4.808;2022-08-11T13:56:39;2.15;;;1.15;;
41633;SDS011;37274;51.150;4.808;2022-08-11T13:59:08;1.77;;;1.10;;
41633;SDS011;37274;51.150;4.808;2022-08-11T14:01:37;2.10;;;1.30;;
41633;SDS011;37274;51.150;4.808;2022-08-11T14:07:02;1.65;;;1.27;;
41633;SDS011;37274;51.150;4.808;2022-08-11T14:09:34;1.40;;;1.30;;
41633;SDS011;37274;51.150;4.808;2022-08-11T14:12:06;2.58;;;1.30;;
41633;SDS011;37274;51.150;4.808;2022-08-11T14:15:30;1.70;;;1.30;;
41633;SDS011;37274;51.150;4.808;2022-08-11T14:17:50;1.35;;;1.08;;
41633;SDS011;37274;51.150;4.808;2022-08-11T14:20:19;1.25;;;1.00;;
41633;SDS011;37274;51.150;4.808;2022-08-11T14:23:05;1.20;;;1.10;;
41633;SDS011;37274;51.150;4.808;2022-08-11T14:25:32;5.68;;;1.50;;
41633;SDS011;37274;51.150;4.808;2022-08-11T14:28:19;1.35;;;1.20;;
41633;SDS011;37274;51.150;4.808;2022-08-11T14:31:01;1.30;;;1.17;;
41633;SDS011;37274;51.150;4.808;2022-08-11T14:33:29;1.40;;;1.10;;
41633;SDS011;37274;51.150;4.808;2022-08-11T14:36:18;2.85;;;1.58;;
41633;SDS011;37274;51.150;4.808;2022-08-11T14:38:45;2.00;;;1.02;;
41633;SDS011;37274;51.150;4.808;2022-08-11T14:41:13;1.38;;;1.27;;
41633;SDS011;37274;51.150;4.808;2022-08-11T14:43:59;2.08;;;1.38;;
41633;SDS011;37274;51.150;4.808;2022-08-11T14:46:44;2.38;;;1.45;;
41633;SDS011;37274;51.150;4.808;2022-08-11T14:49:50;1.42;;;1.15;;
41633;SDS011;37274;51.150;4.808;2022-08-11T14:52:37;2.28;;;1.40;;
41633;SDS011;37274;51.150;4.808;2022-08-11T14:55:04;1.33;;;1.23;;
41633;SDS011;37274;51.150;4.808;2022-08-11T14:57:51;1.95;;;1.30;;
41633;SDS011;37274;51.150;4.808;2022-08-11T15:00:21;1.00;;;1.00;;
41633;SDS011;37274;51.150;4.808;2022-08-11T15:02:48;2.00;;;1.25;;
41633;SDS011;37274;51.150;4.808;2022-08-11T15:05:35;1.00;;;1.00;;
41633;SDS011;37274;51.150;4.808;2022-08-11T15:08:04;2.25;;;1.10;;
41633;SDS011;37274;51.150;4.808;2022-08-11T15:10:32;1.42;;;1.33;;
41633;SDS011;37274;51.150;4.808;2022-08-11T15:12:59;1.23;;;1.10;;
41633;SDS011;37274;51.150;4.808;2022-08-11T15:15:26;1.30;;;1.20;;
41633;SDS011;37274;51.150;4.808;2022-08-11T15:18:13;22.10;;;3.15;;
41633;SDS011;37274;51.150;4.808;2022-08-11T15:20:44;6.57;;;1.80;;
41633;SDS011;37274;51.150;4.808;2022-08-11T15:23:30;2.33;;;1.20;;
41633;SDS011;37274;51.150;4.808;2022-08-11T15:26:17;3.42;;;1.35;;
41633;SDS011;37274;51.150;4.808;2022-08-11T15:29:07;2.72;;;1.50;;
41633;SDS011;37274;51.150;4.808;2022-08-11T15:31:54;2.87;;;1.30;;
41633;SDS011;37274;51.150;4.808;2022-08-11T15:34:39;3.90;;;1.48;;
41633;SDS011;37274;51.150;4.808;2022-08-11T15:37:29;1.73;;;1.10;;
41633;SDS011;37274;51.150;4.808;2022-08-11T15:40:00;3.90;;;1.38;;
41633;SDS011;37274;51.150;4.808;2022-08-11T15:43:13;6.20;;;2.10;;
41633;SDS011;37274;51.150;4.808;2022-08-11T15:46:12;9.05;;;1.80;;
41633;SDS011;37274;51.150;4.808;2022-08-11T15:48:46;5.55;;;1.85;;
41633;SDS011;37274;51.150;4.808;2022-08-11T15:51:27;9.60;;;2.78;;
41633;SDS011;37274;51.150;4.808;2022-08-11T15:53:58;4.60;;;2.35;;
41633;SDS011;37274;51.150;4.808;2022-08-11T15:59:02;3.95;;;0.95;;
41633;SDS011;37274;51.150;4.808;2022-08-11T16:02:10;3.33;;;2.85;;
41633;SDS011;37274;51.150;4.808;2022-08-11T16:04:58;6.18;;;4.05;;
41633;SDS011;37274;51.150;4.808;2022-08-11T16:07:31;15.45;;;6.35;;
41633;SDS011;37274;51.150;4.808;2022-08-11T16:10:10;15.30;;;7.50;;
41633;SDS011;37274;51.150;4.808;2022-08-11T16:12:45;10.15;;;6.03;;
41633;SDS011;37274;51.150;4.808;2022-08-11T16:15:31;9.80;;;6.25;;
41633;SDS011;37274;51.150;4.808;2022-08-11T16:18:20;9.50;;;5.28;;
41633;SDS011;37274;51.150;4.808;2022-08-11T16:20:49;11.05;;;5.15;;
41633;SDS011;37274;51.150;4.808;2022-08-11T16:23:17;9.35;;;5.57;;
41633;SDS011;37274;51.150;4.808;2022-08-11T16:25:45;8.48;;;4.63;;
41633;SDS011;37274;51.150;4.808;2022-08-11T16:28:32;8.52;;;4.45;;
41633;SDS011;37274;51.150;4.808;2022-08-11T16:30:59;6.47;;;3.97;;
41633;SDS011;37274;51.150;4.808;2022-08-11T16:33:26;9.23;;;4.88;;
41633;SDS011;37274;51.150;4.808;2022-08-11T16:36:14;6.88;;;4.70;;
41633;SDS011;37274;51.150;4.808;2022-08-11T16:39:00;7.57;;;4.15;;
41633;SDS011;37274;51.150;4.808;2022-08-11T16:41:29;12.95;;;4.43;;
41633;SDS011;37274;51.150;4.808;2022-08-11T16:44:16;8.07;;;4.45;;
41633;SDS011;37274;51.150;4.808;2022-08-11T16:47:04;11.73;;;3.60;;
41633;SDS011;37274;51.150;4.808;2022-08-11T16:49:34;8.38;;;3.75;;
41633;SDS011;37274;51.150;4.808;2022-08-11T16:52:03;5.63;;;3.28;;
41633;SDS011;37274;51.150;4.808;2022-08-11T16:54:33;5.05;;;2.63;;
41633;SDS011;37274;51.150;4.808;2022-08-11T16:57:11;9.02;;;2.85;;
41633;SDS011;37274;51.150;4.808;2022-08-11T17:00:03;8.13;;;3.17;;
41633;SDS011;37274;51.150;4.808;2022-08-11T17:02:34;6.15;;;2.55;;
41633;SDS011;37274;51.150;4.808;2022-08-11T17:05:21;5.03;;;2.55;;
41633;SDS011;37274;51.150;4.808;2022-08-11T17:08:21;5.57;;;2.80;;
41633;SDS011;37274;51.150;4.808;2022-08-11T17:11:22;5.95;;;2.80;;
41633;SDS011;37274;51.150;4.808;2022-08-11T17:14:12;8.85;;;2.33;;
41633;SDS011;37274;51.150;4.808;2022-08-11T17:16:41;6.18;;;2.63;;
41633;SDS011;37274;51.150;4.808;2022-08-11T17:19:12;4.60;;;2.45;;
41633;SDS011;37274;51.150;4.808;2022-08-11T17:21:40;5.13;;;1.95;;
41633;SDS011;37274;51.150;4.808;2022-08-11T17:24:27;2.50;;;1.75;;
41633;SDS011;37274;51.150;4.808;2022-08-11T17:26:56;3.13;;;2.20;;
41633;SDS011;37274;51.150;4.808;2022-08-11T17:29:33;3.95;;;2.45;;
41633;SDS011;37274;51.150;4.808;2022-08-11T17:32:30;3.05;;;2.42;;
41633;SDS011;37274;51.150;4.808;2022-08-11T17:35:23;4.45;;;1.95;;
41633;SDS011;37274;51.150;4.808;2022-08-11T17:38:17;4.88;;;2.13;;
41633;SDS011;37274;51.150;4.808;2022-08-11T17:43:49;2.70;;;2.00;;
41633;SDS011;37274;51.150;4.808;2022-08-11T17:46:35;2.83;;;1.90;;
41633;SDS011;37274;51.150;4.808;2022-08-11T17:49:21;2.70;;;1.83;;
41633;SDS011;37274;51.150;4.808;2022-08-11T17:51:48;4.65;;;2.40;;
41633;SDS011;37274;51.150;4.808;2022-08-11T17:54:35;2.58;;;1.70;;
41633;SDS011;37274;51.150;4.808;2022-08-11T17:57:21;3.63;;;1.50;;
41633;SDS011;37274;51.150;4.808;2022-08-11T18:00:12;2.40;;;1.60;;
41633;SDS011;37274;51.150;4.808;2022-08-11T18:02:41;3.30;;;1.48;;
41633;SDS011;37274;51.150;4.808;2022-08-11T18:05:28;3.35;;;2.03;;
41633;SDS011;37274;51.150;4.808;2022-08-11T18:07:56;2.47;;;1.88;;
41633;SDS011;37274;51.150;4.808;2022-08-11T18:10:44;1.67;;;1.55;;
41633;SDS011;37274;51.150;4.808;2022-08-11T18:13:32;1.95;;;1.75;;
41633;SDS011;37274;51.150;4.808;2022-08-11T18:16:20;3.33;;;1.65;;
41633;SDS011;37274;51.150;4.808;2022-08-11T18:19:06;1.85;;;1.70;;
41633;SDS011;37274;51.150;4.808;2022-08-11T18:21:52;4.80;;;1.77;;
41633;SDS011;37274;51.150;4.808;2022-08-11T18:24:49;3.28;;;1.98;;
41633;SDS011;37274;51.150;4.808;2022-08-11T18:27:37;3.00;;;1.70;;
41633;SDS011;37274;51.150;4.808;2022-08-11T18:30:24;1.83;;;1.40;;
41633;SDS011;37274;51.150;4.808;2022-08-11T18:33:10;1.98;;;1.48;;
41633;SDS011;37274;51.150;4.808;2022-08-11T18:36:22;1.52;;;0.98;;
41633;SDS011;37274;51.150;4.808;2022-08-11T18:39:11;0.90;;;0.80;;
41633;SDS011;37274;51.150;4.808;2022-08-11T18:41:59;2.42;;;1.08;;
41633;SDS011;37274;51.150;4.808;2022-08-11T18:44:56;2.53;;;1.10;;
41633;SDS011;37274;51.150;4.808;2022-08-11T18:47:43;1.08;;;0.90;;
41633;SDS011;37274;51.150;4.808;2022-08-11T18:50:30;4.00;;;1.00;;
41633;SDS011;37274;51.150;4.808;2022-08-11T18:53:36;7.13;;;1.40;;
41633;SDS011;37274;51.150;4.808;2022-08-11T18:56:23;0.80;;;0.80;;
41633;SDS011;37274;51.150;4.808;2022-08-11T18:59:09;2.45;;;1.20;;
41633;SDS011;37274;51.150;4.808;2022-08-11T19:01:55;2.42;;;1.00;;
41633;SDS011;37274;51.150;4.808;2022-08-11T19:04:41;2.33;;;1.10;;
41633;SDS011;37274;51.150;4.808;2022-08-11T19:07:26;1.88;;;1.00;;
41633;SDS011;37274;51.150;4.808;2022-08-11T19:10:13;3.50;;;1.33;;
41633;SDS011;37274;51.150;4.808;2022-08-11T19:12:58;2.25;;;1.30;;
41633;SDS011;37274;51.150;4.808;2022-08-11T19:15:44;1.58;;;1.00;;
41633;SDS011;37274;51.150;4.808;2022-08-11T19:18:31;1.92;;;1.00;;
41633;SDS011;37274;51.150;4.808;2022-08-11T19:21:18;3.15;;;1.08;;
41633;SDS011;37274;51.150;4.808;2022-08-11T19:24:04;1.90;;;1.02;;
41633;SDS011;37274;51.150;4.808;2022-08-11T19:26:51;3.23;;;1.53;;
41633;SDS011;37274;51.150;4.808;2022-08-11T19:32:38;1.70;;;0.95;;
41633;SDS011;37274;51.150;4.808;2022-08-11T19:35:24;2.05;;;1.10;;
41633;SDS011;37274;51.150;4.808;2022-08-11T19:38:10;3.63;;;1.25;;
41633;SDS011;37274;51.150;4.808;2022-08-11T19:40:56;3.10;;;1.27;;
41633;SDS011;37274;51.150;4.808;2022-08-11T19:44:02;3.03;;;0.90;;
41633;SDS011;37274;51.150;4.808;2022-08-11T19:46:48;3.35;;;0.90;;
41633;SDS011;37274;51.150;4.808;2022-08-11T19:49:35;3.63;;;1.15;;
41633;SDS011;37274;51.150;4.808;2022-08-11T19:52:20;4.57;;;1.40;;
41633;SDS011;37274;51.150;4.808;2022-08-11T19:55:06;2.30;;;1.17;;
41633;SDS011;37274;51.150;4.808;2022-08-11T19:57:53;2.40;;;1.40;;
41633;SDS011;37274;51.150;4.808;2022-08-11T20:00:39;1.70;;;1.17;;
41633;SDS011;37274;51.150;4.808;2022-08-11T20:03:25;3.45;;;1.02;;
41633;SDS011;37274;51.150;4.808;2022-08-11T20:06:10;3.60;;;1.92;;
41633;SDS011;37274;51.150;4.808;2022-08-11T20:08:58;4.47;;;2.20;;
41633;SDS011;37274;51.150;4.808;2022-08-11T20:11:48;5.22;;;2.42;;
41633;SDS011;37274;51.150;4.808;2022-08-11T20:14:37;2.28;;;2.03;;
41633;SDS011;37274;51.150;4.808;2022-08-11T20:17:24;2.65;;;2.00;;
41633;SDS011;37274;51.150;4.808;2022-08-11T20:20:13;3.15;;;2.35;;